Time;durP1;ratioP1;P1;durP2;ratioP2;P2;SDS_P1;SDS_P2;PMS_P1;PMS_P2;Temp;Humidity;BMP_temperature;BMP_pressure;BME280_temperature;BME280_humidity;BME280_pressure;Samples;Min_cycle;Max_cycle;Signal;HPM_P1;HPM_P2
2023/03/23 00:02:15;;;;;;;0.50;0.50;;;;;;;4.46;100.00;98809.72;5044701;28;20044;-71
2023/03/23 00:04:42;;;;;;;0.50;0.50;;;;;;;4.34;100.00;98785.00;5044689;28;20022;-70
2023/03/23 00:07:08;;;;;;;0.50;0.50;;;;;;;4.47;100.00;98782.31;5044711;28;20022;-71
2023/03/23 00:09:34;;;;;;;0.50;0.50;;;;;;;4.47;100.00;98803.72;5044640;28;20083;-71
2023/03/23 00:12:05;;;;;;;0.50;0.50;;;;;;;4.31;100.00;98772.16;5043132;28;20022;-71
2023/03/23 00:14:40;;;;;;;0.60;0.60;;;;;;;4.32;100.00;98768.75;5044376;28;20079;-70
2023/03/23 00:17:10;;;;;;;0.50;0.50;;;;;;;4.50;100.00;98791.72;5044375;28;20041;-70
2023/03/23 00:19:45;;;;;;;0.47;0.47;;;;;;;4.50;100.00;98786.56;5044371;28;20028;-70
2023/03/23 00:22:14;;;;;;;0.50;0.50;;;;;;;4.33;100.00;98767.00;5044233;28;20025;-70
2023/03/23 00:24:41;;;;;;;0.50;0.50;;;;;;;4.45;100.00;98790.06;5046705;28;20025;-71
2023/03/23 00:27:08;;;;;;;0.40;0.40;;;;;;;4.49;100.00;98787.44;5048344;28;20052;-71
2023/03/23 00:29:34;;;;;;;0.50;0.50;;;;;;;4.36;100.00;98773.88;5047842;28;20068;-72
2023/03/23 00:32:01;;;;;;;0.40;0.40;;;;;;;4.48;100.00;98791.72;5047970;28;20036;-72
2023/03/23 00:34:32;;;;;;;0.40;0.40;;;;;;;4.49;100.00;98784.88;5048027;28;20032;-72
2023/03/23 00:36:58;;;;;;;0.40;0.40;;;;;;;4.52;100.00;98788.25;5047911;28;20021;-72
2023/03/23 00:39:28;;;;;;;0.40;0.40;;;;;;;4.55;100.00;98779.69;5047819;28;20033;-72
2023/03/23 00:42:00;;;;;;;0.40;0.40;;;;;;;4.58;100.00;98788.19;5063219;28;20041;-72
2023/03/23 00:44:28;;;;;;;0.40;0.40;;;;;;;4.63;100.00;98784.75;5062536;28;20029;-72
2023/03/23 00:46:56;;;;;;;0.50;0.50;;;;;;;4.59;100.00;98783.91;5046743;28;20079;-72
2023/03/23 00:49:25;;;;;;;0.40;0.40;;;;;;;4.66;100.00;98783.00;5061756;28;20049;-72
2023/03/23 00:51:56;;;;;;;0.40;0.40;;;;;;;4.68;100.00;98781.25;5061551;28;20018;-73
2023/03/23 00:54:23;;;;;;;0.40;0.40;;;;;;;4.71;100.00;98783.78;5061609;28;20385;-73
2023/03/23 00:56:49;;;;;;;0.40;0.40;;;;;;;4.76;100.00;98778.59;5046382;28;20030;-73
2023/03/23 00:59:15;;;;;;;0.40;0.40;;;;;;;4.57;100.00;98753.09;5046794;28;20027;-73
2023/03/23 01:01:41;;;;;;;0.40;0.40;;;;;;;4.58;100.00;98731.63;5047388;28;20047;-74
2023/03/23 01:04:06;;;;;;;0.40;0.40;;;;;;;4.75;100.00;98756.31;5062559;28;20033;-73
2023/03/23 01:06:35;;;;;;;0.45;0.45;;;;;;;4.78;100.00;98758.00;5047176;28;20021;-74
2023/03/23 01:09:02;;;;;;;0.70;0.70;;;;;;;4.92;100.00;98778.44;5047174;28;20098;-73
2023/03/23 01:11:27;;;;;;;0.50;0.50;;;;;;;4.95;100.00;98773.25;5047298;28;20032;-72
2023/03/23 01:13:53;;;;;;;0.45;0.45;;;;;;;4.89;100.00;98763.88;5062610;28;20041;-73
2023/03/23 01:16:18;;;;;;;0.50;0.50;;;;;;;5.01;100.00;98773.19;5047137;28;20099;-72
2023/03/23 01:18:44;;;;;;;0.50;0.50;;;;;;;5.01;100.00;98770.59;5046434;28;20113;-72
2023/03/23 01:21:12;;;;;;;0.40;0.40;;;;;;;5.00;100.00;98770.63;5045867;28;20083;-72
2023/03/23 01:23:38;;;;;;;0.40;0.40;;;;;;;4.96;100.00;98768.09;5045986;28;20028;-72
2023/03/23 01:26:09;;;;;;;0.40;0.40;;;;;;;4.92;100.00;98753.56;5046941;28;20057;-73
2023/03/23 01:28:35;;;;;;;0.40;0.40;;;;;;;4.80;100.00;98743.41;5046736;28;20474;-73
2023/03/23 01:31:07;;;;;;;0.40;0.40;;;;;;;4.89;100.00;98776.72;5062109;28;20461;-73
2023/03/23 01:33:33;;;;;;;0.40;0.40;;;;;;;4.88;100.00;98758.75;5046726;28;20018;-73
2023/03/23 01:36:04;;;;;;;0.50;0.50;;;;;;;4.86;100.00;98763.91;5061800;28;20083;-73
2023/03/23 01:38:30;;;;;;;0.43;0.43;;;;;;;4.84;100.00;98763.06;5062008;28;20123;-73
2023/03/23 01:40:56;;;;;;;0.50;0.50;;;;;;;4.60;100.00;98729.06;5046780;28;20534;-73
2023/03/23 01:43:21;;;;;;;0.50;0.50;;;;;;;4.77;100.00;98769.16;5046281;28;20045;-73
2023/03/23 01:45:47;;;;;;;0.47;0.47;;;;;;;4.73;100.00;98758.06;5046641;28;20032;-72
2023/03/23 01:48:18;;;;;;;0.40;0.40;;;;;;;4.68;100.00;98752.97;5045244;28;20021;-72
2023/03/23 01:51:07;;;;;;;0.60;0.60;;;;;;;4.65;100.00;98747.84;5046366;28;20021;-73
2023/03/23 01:53:47;;;;;;;0.40;0.40;;;;;;;4.59;100.00;98735.06;5046158;28;20030;-73
2023/03/23 01:56:20;;;;;;;0.40;0.40;;;;;;;4.51;100.00;98734.31;5046487;28;20025;-74
2023/03/23 01:58:46;;;;;;;0.40;0.40;;;;;;;4.46;100.00;98734.34;5046245;28;20052;-73
2023/03/23 02:01:14;;;;;;;0.40;0.40;;;;;;;4.57;100.00;98739.38;5046197;28;20081;-72
2023/03/23 02:03:44;;;;;;;0.50;0.50;;;;;;;4.54;100.00;98742.84;5046188;28;20025;-71
2023/03/23 02:06:10;;;;;;;0.50;0.50;;;;;;;4.53;100.00;98736.00;5046436;28;20453;-72
2023/03/23 02:08:38;;;;;;;0.40;0.40;;;;;;;4.41;100.00;98731.81;5044959;28;20033;-72
2023/03/23 02:11:19;;;;;;;1.27;1.27;;;;;;;4.31;100.00;98704.53;5045957;28;20025;-72
2023/03/23 02:13:46;;;;;;;0.40;0.40;;;;;;;4.51;100.00;98716.31;5061168;28;20024;-71
2023/03/23 02:16:17;;;;;;;0.40;0.40;;;;;;;4.65;100.00;98729.03;5045834;28;20030;-72
2023/03/23 02:18:53;;;;;;;0.50;0.50;;;;;;;4.71;100.00;98722.06;5045902;28;20021;-72
2023/03/23 02:21:41;;;;;;;0.40;0.40;;;;;;;4.80;100.00;98720.28;5045895;28;20060;-73
2023/03/23 02:24:48;;;;;;;0.50;0.50;;;;;;;4.88;100.00;98708.19;5045796;28;20089;-73
2023/03/23 02:27:42;;;;;;;0.50;0.50;;;;;;;4.98;100.00;98715.78;5045730;28;20025;-73
2023/03/23 02:30:45;;;;;;;0.40;0.40;;;;;;;5.05;100.00;98709.66;5045606;28;20089;-75
2023/03/23 02:33:17;;;;;;;0.40;0.40;;;;;;;5.11;100.00;98717.34;5045569;28;20030;-72
2023/03/23 02:36:09;;;;;;;0.40;0.40;;;;;;;5.02;100.00;98683.97;5045822;28;20071;-74
2023/03/23 02:38:37;;;;;;;0.40;0.40;;;;;;;5.21;100.00;98703.44;5045837;28;20056;-74
2023/03/23 02:41:03;;;;;;;0.40;0.40;;;;;;;5.23;100.00;98687.13;5045539;28;20021;-75
2023/03/23 02:43:36;;;;;;;0.40;0.40;;;;;;;5.31;100.00;98693.88;5045142;28;20032;-74
2023/03/23 02:46:06;;;;;;;0.47;0.47;;;;;;;5.36;100.00;98683.53;5045565;28;20025;-74
2023/03/23 02:48:33;;;;;;;0.40;0.40;;;;;;;5.16;100.00;98647.81;5044645;28;20021;-74
2023/03/23 02:51:00;;;;;;;0.50;0.50;;;;;;;5.42;100.00;98680.84;5045457;28;20025;-74
2023/03/23 02:53:28;;;;;;;0.40;0.40;;;;;;;5.23;100.00;98635.69;5045169;28;20033;-76
2023/03/23 02:55:56;;;;;;;0.40;0.40;;;;;;;5.45;100.00;98665.38;5060715;28;20032;-75
2023/03/23 02:58:21;;;;;;;0.40;0.40;;;;;;;5.44;100.00;98658.53;5045052;28;20021;-74
2023/03/23 03:00:50;;;;;;;0.40;0.40;;;;;;;5.54;100.00;98672.06;5044053;28;20024;-75
2023/03/23 03:03:20;;;;;;;0.40;0.40;;;;;;;5.56;100.00;98667.75;5044882;28;20029;-75
2023/03/23 03:06:25;;;;;;;0.40;0.40;;;;;;;5.61;100.00;98666.84;5045236;28;20021;-74
2023/03/23 03:09:03;;;;;;;0.50;0.50;;;;;;;5.63;100.00;98665.09;5041213;28;20033;-75
2023/03/23 03:11:31;;;;;;;1.05;1.05;;;;;;;5.63;100.00;98668.53;5043859;28;20060;-75
2023/03/23 03:13:58;;;;;;;0.40;0.40;;;;;;;5.67;100.00;98665.00;5043656;28;20036;-74
2023/03/23 03:16:36;;;;;;;0.40;0.40;;;;;;;5.68;100.00;98661.59;5060264;28;20109;-75
2023/03/23 03:19:22;;;;;;;0.40;0.40;;;;;;;5.69;100.00;98658.13;5044938;28;20037;-75
2023/03/23 03:21:50;;;;;;;0.40;0.40;;;;;;;5.61;100.00;98641.13;5044812;28;20055;-75
2023/03/23 03:24:18;;;;;;;0.50;0.50;;;;;;;5.57;100.00;98632.59;5044667;28;20030;-74
2023/03/23 03:26:47;;;;;;;0.50;0.50;;;;;;;5.67;100.00;98649.56;5044705;28;20112;-74
2023/03/23 03:29:17;;;;;;;0.47;0.47;;;;;;;5.69;100.00;98646.97;5043588;28;20397;-72
2023/03/23 03:31:47;;;;;;;0.40;0.40;;;;;;;5.68;100.00;98647.84;5059891;28;20021;-71
2023/03/23 03:34:17;;;;;;;0.50;0.50;;;;;;;5.69;100.00;98649.53;5044758;28;20024;-70
2023/03/23 03:36:45;;;;;;;0.50;0.50;;;;;;;5.46;100.00;98607.03;5045022;28;20022;-70
2023/03/23 03:39:12;;;;;;;0.40;0.40;;;;;;;5.69;100.00;98649.53;5044646;28;20089;-70
2023/03/23 03:41:38;;;;;;;0.40;0.40;;;;;;;5.67;100.00;98634.13;5060336;28;20137;-70
2023/03/23 03:44:06;;;;;;;0.43;0.43;;;;;;;5.65;100.00;98635.88;5044451;28;20462;-70
2023/03/23 03:46:32;;;;;;;0.50;0.50;;;;;;;5.61;100.00;98634.22;5044770;28;20037;-70
2023/03/23 03:48:59;;;;;;;0.50;0.50;;;;;;;5.61;100.00;98630.81;5044533;28;20017;-71
2023/03/23 03:51:26;;;;;;;0.50;0.50;;;;;;;5.46;100.00;98612.19;5044777;28;20034;-70
2023/03/23 03:53:52;;;;;;;0.50;0.50;;;;;;;5.53;100.00;98612.91;5059466;28;20081;-71
2023/03/23 03:56:17;;;;;;;0.40;0.40;;;;;;;5.69;100.00;98632.38;5044751;28;20036;-71
2023/03/23 03:58:43;;;;;;;0.50;0.50;;;;;;;5.73;100.00;98646.06;5043915;28;20055;-71
2023/03/23 04:01:10;;;;;;;0.50;0.50;;;;;;;5.74;100.00;98641.72;5048555;28;20037;-71
2023/03/23 04:03:36;;;;;;;0.40;0.40;;;;;;;5.52;100.00;98603.47;5048471;28;20025;-71
2023/03/23 04:06:02;;;;;;;0.40;0.40;;;;;;;5.68;100.00;98616.94;5048341;28;20104;-71
2023/03/23 04:08:28;;;;;;;0.40;0.40;;;;;;;5.77;100.00;98634.81;5063949;28;20029;-71
2023/03/23 04:10:54;;;;;;;0.40;0.40;;;;;;;5.76;100.00;98632.25;5048386;28;20029;-70
2023/03/23 04:13:20;;;;;;;0.40;0.40;;;;;;;5.73;100.00;98628.03;5048175;28;20025;-70
2023/03/23 04:15:47;;;;;;;0.45;0.45;;;;;;;5.74;100.00;98621.13;5046998;28;20049;-70
2023/03/23 04:18:14;;;;;;;0.40;0.40;;;;;;;5.74;100.00;98621.13;5048298;28;20045;-70
2023/03/23 04:20:41;;;;;;;0.40;0.40;;;;;;;5.73;100.00;98627.16;5048292;28;20026;-70
2023/03/23 04:23:07;;;;;;;0.50;0.50;;;;;;;5.58;100.00;98598.22;5047995;28;20022;-71
2023/03/23 04:25:32;;;;;;;0.50;0.50;;;;;;;5.70;100.00;98616.03;5048078;28;20085;-71
2023/03/23 04:27:58;;;;;;;0.50;0.50;;;;;;;5.67;100.00;98615.25;5047953;28;20025;-71
2023/03/23 04:30:24;;;;;;;0.50;0.50;;;;;;;5.65;100.00;98620.44;5047801;28;20025;-71
2023/03/23 04:32:51;;;;;;;0.50;0.50;;;;;;;5.58;100.00;98614.53;5048094;28;20092;-71
2023/03/23 04:35:19;;;;;;;0.50;0.50;;;;;;;5.46;100.00;98586.44;5047878;28;20036;-73
2023/03/23 04:37:45;;;;;;;0.47;0.47;;;;;;;5.56;100.00;98602.53;5063798;28;20025;-74
2023/03/23 04:40:14;;;;;;;0.50;0.50;;;;;;;5.31;100.00;98561.78;5047904;28;20029;-75
2023/03/23 04:42:41;;;;;;;0.45;0.45;;;;;;;5.39;100.00;98584.81;5047537;28;20079;-75
2023/03/23 04:45:08;;;;;;;0.50;0.50;;;;;;;5.50;100.00;98589.78;5047625;28;20026;-74
2023/03/23 04:47:40;;;;;;;0.43;0.43;;;;;;;5.36;100.00;98580.59;5047804;28;20062;-75
2023/03/23 04:50:14;;;;;;;0.60;0.60;;;;;;;5.48;100.00;98588.97;5062810;28;20025;-74
2023/03/23 04:52:44;;;;;;;0.50;0.50;;;;;;;5.49;100.00;98599.25;5047536;28;20029;-75
2023/03/23 04:55:12;;;;;;;0.50;0.50;;;;;;;5.45;100.00;98589.88;5047645;28;20032;-75
2023/03/23 04:57:39;;;;;;;0.50;0.50;;;;;;;5.23;100.00;98561.06;5062721;28;20540;-75
2023/03/23 05:00:08;;;;;;;0.40;0.40;;;;;;;5.27;100.00;98562.72;5062724;28;20053;-75
2023/03/23 05:02:39;;;;;;;0.50;0.50;;;;;;;5.42;100.00;98593.34;5047369;28;20029;-74
2023/03/23 05:05:06;;;;;;;0.50;0.50;;;;;;;5.41;100.00;98596.81;5047367;28;20033;-70
2023/03/23 05:07:31;;;;;;;0.40;0.40;;;;;;;5.29;100.00;98571.25;5047142;28;20037;-73
2023/03/23 05:09:57;;;;;;;0.50;0.50;;;;;;;5.39;100.00;98590.81;5046768;28;20036;-73
2023/03/23 05:12:22;;;;;;;0.40;0.40;;;;;;;5.38;100.00;98583.13;5046737;28;20022;-73
2023/03/23 05:14:48;;;;;;;0.40;0.40;;;;;;;5.28;100.00;98569.56;5046925;28;20032;-73
2023/03/23 05:17:16;;;;;;;0.50;0.50;;;;;;;5.42;100.00;98579.63;5046802;28;20052;-73
2023/03/23 05:19:44;;;;;;;0.50;0.50;;;;;;;5.43;100.00;98579.59;5046980;28;20044;-72
2023/03/23 05:22:12;;;;;;;0.50;0.50;;;;;;;5.43;100.00;98578.78;5046942;28;20074;-72
2023/03/23 05:24:38;;;;;;;0.50;0.50;;;;;;;5.43;100.00;98578.78;5047017;28;20051;-73
2023/03/23 05:27:03;;;;;;;0.43;0.43;;;;;;;5.43;100.00;98569.28;5046894;28;20045;-73
2023/03/23 05:29:33;;;;;;;0.50;0.50;;;;;;;5.30;100.00;98553.22;5045450;28;20029;-76
2023/03/23 05:32:02;;;;;;;0.50;0.50;;;;;;;5.35;100.00;98557.44;5047136;28;20021;-76
2023/03/23 05:34:28;;;;;;;0.43;0.43;;;;;;;5.35;100.00;98557.44;5046492;28;20079;-81
2023/03/23 05:36:55;;;;;;;0.40;0.40;;;;;;;5.35;100.00;98550.59;5046510;28;20037;-77
2023/03/23 05:39:21;;;;;;;0.43;0.43;;;;;;;5.53;100.00;98574.28;5044937;28;20087;-79
2023/03/23 05:41:47;;;;;;;0.50;0.50;;;;;;;5.51;100.00;98561.44;5046483;28;20032;-78
2023/03/23 05:44:15;;;;;;;0.50;0.50;;;;;;;5.57;100.00;98569.06;5045986;28;20029;-79
2023/03/23 05:46:41;;;;;;;0.50;0.50;;;;;;;5.46;100.00;98553.81;5046918;28;20036;-79
2023/03/23 05:49:07;;;;;;;0.45;0.45;;;;;;;5.50;100.00;98553.75;5046917;28;20077;-80
2023/03/23 05:51:32;;;;;;;0.50;0.50;;;;;;;5.60;100.00;98564.75;5046656;28;20072;-79
2023/03/23 05:53:58;;;;;;;0.50;0.50;;;;;;;5.60;100.00;98555.31;5062185;28;20291;-79
2023/03/23 05:56:24;;;;;;;0.40;0.40;;;;;;;5.51;100.00;98542.59;5046454;28;20457;-79
2023/03/23 05:58:49;;;;;;;0.40;0.40;;;;;;;5.51;100.00;98534.88;5046313;28;20033;-79
2023/03/23 06:01:15;;;;;;;0.50;0.50;;;;;;;5.44;100.00;98523.84;5046663;28;20084;-78
2023/03/23 06:03:41;;;;;;;0.50;0.50;;;;;;;5.64;100.00;98549.19;5045599;28;20025;-77
2023/03/23 06:06:11;;;;;;;0.50;0.50;;;;;;;5.64;100.00;98572.38;5061601;28;20022;-76
2023/03/23 06:08:37;;;;;;;0.40;0.40;;;;;;;5.58;100.00;98560.47;5061726;28;20029;-77
2023/03/23 06:11:03;;;;;;;0.50;0.50;;;;;;;5.52;100.00;98552.00;5061652;28;20033;-76
2023/03/23 06:13:28;;;;;;;0.50;0.50;;;;;;;5.51;100.00;98553.72;5045906;28;20013;-76
2023/03/23 06:15:57;;;;;;;0.43;0.43;;;;;;;5.54;100.00;98553.66;5044959;28;20375;-76
2023/03/23 06:18:23;;;;;;;0.40;0.40;;;;;;;5.57;100.00;98543.31;5045159;28;20508;-75
2023/03/23 06:20:49;;;;;;;0.50;0.50;;;;;;;5.72;100.00;98554.22;5046103;28;20082;-70
2023/03/23 06:23:14;;;;;;;0.45;0.45;;;;;;;5.79;100.00;98549.81;5061094;28;20480;-69
2023/03/23 06:25:40;;;;;;;0.40;0.40;;;;;;;5.75;100.00;98540.44;5046061;28;20040;-69
2023/03/23 06:28:05;;;;;;;0.50;0.50;;;;;;;5.74;100.00;98531.88;5045695;28;20022;-76
2023/03/23 06:30:31;;;;;;;0.40;0.40;;;;;;;5.77;100.00;98536.97;5045669;28;20052;-76
2023/03/23 06:32:56;;;;;;;0.50;0.50;;;;;;;5.73;100.00;98529.31;5060922;28;20029;-76
2023/03/23 06:35:22;;;;;;;0.47;0.47;;;;;;;5.84;100.00;98537.69;5045691;28;20028;-77
2023/03/23 06:37:47;;;;;;;0.50;0.50;;;;;;;5.89;100.00;98529.88;5045529;28;20033;-76
2023/03/23 06:40:13;;;;;;;0.40;0.40;;;;;;;5.78;100.00;98506.91;5045605;28;20025;-77
2023/03/23 06:42:39;;;;;;;0.40;0.40;;;;;;;5.90;100.00;98527.28;5044531;28;20025;-78
2023/03/23 06:45:05;;;;;;;0.40;0.40;;;;;;;5.83;100.00;98503.34;5045510;28;20470;-77
2023/03/23 06:47:30;;;;;;;0.60;0.60;;;;;;;6.04;100.00;98526.13;5044011;28;20021;-78
2023/03/23 06:49:57;;;;;;;0.40;0.40;;;;;;;6.04;100.00;98521.88;5045492;28;20028;-78
2023/03/23 06:52:24;;;;;;;0.40;0.40;;;;;;;6.04;100.00;98520.97;5045322;28;20029;-77
2023/03/23 06:54:50;;;;;;;0.50;0.50;;;;;;;5.86;100.00;98493.88;5045348;28;20029;-78
2023/03/23 06:57:16;;;;;;;0.40;0.40;;;;;;;5.99;100.00;98518.50;5045785;28;20028;-77
2023/03/23 06:59:42;;;;;;;0.45;0.45;;;;;;;5.98;100.00;98516.81;5045162;28;20025;-76
2023/03/23 07:02:13;;;;;;;0.47;0.47;;;;;;;5.97;100.00;98509.13;5060646;28;20021;-75
2023/03/23 07:04:40;;;;;;;0.40;0.40;;;;;;;5.97;100.00;98519.41;5060608;28;20021;-76
2023/03/23 07:07:07;;;;;;;0.60;0.52;;;;;;;5.77;100.00;98479.44;5045428;28;20022;-76
2023/03/23 07:09:33;;;;;;;0.55;0.55;;;;;;;5.97;100.00;98509.13;5046288;28;20029;-77
2023/03/23 07:11:58;;;;;;;0.40;0.40;;;;;;;5.97;100.00;98509.13;5045393;28;20052;-77
2023/03/23 07:14:24;;;;;;;0.40;0.40;;;;;;;5.97;100.00;98498.81;5045025;28;20017;-77
2023/03/23 07:16:49;;;;;;;0.47;0.47;;;;;;;5.97;100.00;98483.34;5045244;28;20049;-75
2023/03/23 07:19:15;;;;;;;0.50;0.50;;;;;;;6.01;100.00;98488.41;5060669;28;20041;-76
2023/03/23 07:21:41;;;;;;;0.40;0.40;;;;;;;6.05;100.00;98496.97;5045213;28;20029;-78
2023/03/23 07:24:11;;;;;;;0.50;0.50;;;;;;;6.11;100.00;98483.94;5044917;28;20026;-77
2023/03/23 07:26:37;;;;;;;0.43;0.43;;;;;;;6.16;100.00;98482.13;5045173;28;20021;-78
2023/03/23 07:29:02;;;;;;;0.40;0.40;;;;;;;6.06;100.00;98462.59;5044910;28;20080;-76
2023/03/23 07:31:28;;;;;;;0.50;0.50;;;;;;;6.20;100.00;98483.75;5045178;28;20042;-77
2023/03/23 07:33:53;;;;;;;0.43;0.43;;;;;;;6.25;100.00;98485.38;5046140;28;20018;-78
2023/03/23 07:36:19;;;;;;;0.50;0.50;;;;;;;6.17;100.00;98468.38;5064615;28;20051;-75
2023/03/23 07:38:44;;;;;;;0.40;0.40;;;;;;;6.20;100.00;98449.41;5049123;28;20097;-77
2023/03/23 07:41:10;;;;;;;0.40;0.40;;;;;;;6.34;100.00;98462.00;5047713;28;20021;-77
2023/03/23 07:43:35;;;;;;;0.40;0.40;;;;;;;6.47;100.00;98474.59;5063989;28;20025;-74
2023/03/23 07:46:00;;;;;;;0.40;0.40;;;;;;;6.48;100.00;98459.09;5049127;28;20044;-77
2023/03/23 07:48:26;;;;;;;0.40;0.40;;;;;;;6.68;100.00;98476.69;5047781;28;20029;-77
2023/03/23 07:50:52;;;;;;;0.45;0.45;;;;;;;6.78;100.00;98479.88;5064239;28;20028;-77
2023/03/23 07:53:17;;;;;;;0.40;0.40;;;;;;;6.86;100.00;98476.25;5047588;28;20032;-77
2023/03/23 07:55:43;;;;;;;0.40;0.40;;;;;;;6.87;100.00;98452.19;5048838;28;20083;-79
2023/03/23 07:58:09;;;;;;;0.47;0.47;;;;;;;7.09;100.00;98472.28;5048977;28;20026;-78
2023/03/23 08:00:35;;;;;;;0.40;0.40;;;;;;;6.84;100.00;98422.13;5048701;28;20033;-77
2023/03/23 08:03:02;;;;;;;0.40;0.40;;;;;;;6.86;100.00;98443.59;5048559;28;20465;-77
2023/03/23 08:05:28;;;;;;;0.50;0.50;;;;;;;6.96;100.00;98462.28;5048703;28;20048;-77
2023/03/23 08:07:54;;;;;;;0.50;0.50;;;;;;;7.01;100.00;98459.56;5064097;28;20091;-78
2023/03/23 08:10:21;;;;;;;0.40;0.40;;;;;;;6.99;100.00;98453.59;5063945;28;20029;-80
2023/03/23 08:12:51;;;;;;;0.43;0.43;;;;;;;6.99;100.00;98459.59;5048623;28;20090;-77
2023/03/23 08:15:16;;;;;;;0.40;0.40;;;;;;;6.95;100.00;98455.41;5048248;28;20021;-76
2023/03/23 08:17:43;;;;;;;0.40;0.40;;;;;;;6.98;100.00;98455.31;5048347;28;20052;-78
2023/03/23 08:20:12;;;;;;;0.40;0.40;;;;;;;7.00;100.00;98447.53;5048394;28;20022;-77
2023/03/23 08:22:44;;;;;;;0.40;0.40;;;;;;;6.93;100.00;98427.06;5048198;28;20045;-77
2023/03/23 08:25:12;;;;;;;0.40;0.40;;;;;;;7.11;100.00;98452.44;5048465;28;20025;-78
2023/03/23 08:27:43;;;;;;;0.50;0.50;;;;;;;7.12;100.00;98455.00;5063615;28;20032;-78
2023/03/23 08:30:10;;;;;;;0.40;0.40;;;;;;;7.17;100.00;98447.94;5048171;28;20032;-79
2023/03/23 08:32:36;;;;;;;0.40;0.40;;;;;;;7.26;100.00;98446.03;5048089;28;20028;-76
2023/03/23 08:35:02;;;;;;;0.50;0.50;;;;;;;7.37;100.00;98444.00;5048323;28;20029;-78
2023/03/23 08:37:28;;;;;;;0.47;0.47;;;;;;;7.49;100.00;98445.41;5048168;28;20438;-77
2023/03/23 08:39:56;;;;;;;0.40;0.40;;;;;;;7.55;100.00;98455.59;5047952;28;20103;-78
2023/03/23 08:42:23;;;;;;;0.50;0.50;;;;;;;7.60;100.00;98441.69;5047982;28;20022;-78
2023/03/23 08:44:48;;;;;;;0.40;0.40;;;;;;;7.47;100.00;98415.34;5047098;28;20026;-78
2023/03/23 08:47:14;;;;;;;0.40;0.40;;;;;;;7.71;100.00;98442.22;5047219;28;20033;-77
2023/03/23 08:49:39;;;;;;;1.25;1.15;;;;;;;7.71;100.00;98439.66;5047864;28;20038;-78
2023/03/23 08:52:05;;;;;;;0.40;0.40;;;;;;;7.61;100.00;98433.91;5047854;28;20112;-77
2023/03/23 08:54:31;;;;;;;0.40;0.40;;;;;;;7.59;100.00;98432.25;5047586;28;20081;-78
2023/03/23 08:57:00;;;;;;;0.40;0.40;;;;;;;7.54;100.00;98427.22;5047752;28;20029;-76
2023/03/23 08:59:26;;;;;;;0.40;0.40;;;;;;;7.55;100.00;98426.31;5047482;28;20728;-77
2023/03/23 09:01:52;;;;;;;0.40;0.40;;;;;;;7.37;100.00;98384.63;5062715;28;20032;-78
2023/03/23 09:04:18;;;;;;;0.40;0.40;;;;;;;7.62;100.00;98407.16;5047298;28;20125;-77
2023/03/23 09:06:44;;;;;;;0.40;0.40;;;;;;;7.82;100.00;98405.75;5047506;28;20017;-76
2023/03/23 09:09:09;;;;;;;0.40;0.40;;;;;;;7.88;100.00;98402.13;5047452;28;20032;-77
2023/03/23 09:11:36;;;;;;;0.50;0.50;;;;;;;7.89;100.00;98398.69;5046032;28;20029;-77
2023/03/23 09:14:03;;;;;;;0.40;0.40;;;;;;;7.92;100.00;98402.00;5047145;28;20071;-76
2023/03/23 09:16:29;;;;;;;0.40;0.40;;;;;;;8.02;100.00;98401.75;5047416;28;20051;-76
2023/03/23 09:18:56;;;;;;;0.40;0.40;;;;;;;7.95;100.00;98388.16;5047497;28;20085;-77
2023/03/23 09:21:22;;;;;;;0.45;0.45;;;;;;;8.05;100.00;98399.06;5047179;28;20029;-76
2023/03/23 09:23:48;;;;;;;0.40;0.40;;;;;;;8.11;100.00;98395.44;5047052;28;20056;-76
2023/03/23 09:26:14;;;;;;;0.40;0.40;;;;;;;8.15;100.00;98397.00;5047237;28;20025;-76
2023/03/23 09:28:39;;;;;;;0.40;0.40;;;;;;;8.14;100.00;98385.84;5047453;28;20041;-75
2023/03/23 09:31:05;;;;;;;0.40;0.40;;;;;;;8.09;100.00;98390.31;5062597;28;20052;-75
2023/03/23 09:33:34;;;;;;;0.40;0.40;;;;;;;7.98;100.00;98385.47;5045740;28;20028;-76
2023/03/23 09:36:00;;;;;;;0.65;0.65;;;;;;;7.91;100.00;98378.78;5045447;28;20025;-76
2023/03/23 09:38:26;;;;;;;0.40;0.40;;;;;;;7.82;100.00;98369.59;5062253;28;20044;-76
2023/03/23 09:41:01;;;;;;;0.40;0.40;;;;;;;7.72;100.00;98368.16;5046981;28;20025;-77
2023/03/23 09:43:45;;;;;;;0.40;0.40;;;;;;;7.78;100.00;98388.66;5046836;28;20112;-75
2023/03/23 09:46:16;;;;;;;0.50;0.50;;;;;;;7.69;100.00;98380.28;5046873;28;20072;-75
2023/03/23 09:48:47;;;;;;;0.85;0.85;;;;;;;7.64;100.00;98383.88;5062280;28;20025;-76
2023/03/23 09:51:22;;;;;;;0.50;0.50;;;;;;;7.61;100.00;98376.22;5046868;28;20029;-76
2023/03/23 09:53:52;;;;;;;0.70;0.70;;;;;;;7.59;100.00;98390.94;5061931;28;20089;-77
2023/03/23 09:56:20;;;;;;;0.40;0.40;;;;;;;7.53;100.00;98382.47;5046403;28;20053;-76
2023/03/23 09:59:18;;;;;;;0.50;0.50;;;;;;;7.45;100.00;98381.84;5061613;28;20022;-76
2023/03/23 10:01:51;;;;;;;0.40;0.40;;;;;;;7.42;100.00;98376.75;5041290;28;20033;-77
2023/03/23 10:04:45;;;;;;;0.82;0.82;;;;;;;7.39;100.00;98372.53;5046258;28;20101;-76
2023/03/23 10:07:22;;;;;;;0.40;0.40;;;;;;;7.40;100.00;98374.22;5047407;28;20032;-76
2023/03/23 10:10:01;;;;;;;0.40;0.40;;;;;;;7.33;100.00;98362.38;5047175;28;20029;-76
2023/03/23 10:12:42;;;;;;;0.50;0.50;;;;;;;7.48;100.00;98367.97;5046509;28;20044;-76
2023/03/23 10:15:16;;;;;;;0.40;0.40;;;;;;;7.53;100.00;98372.13;5046061;28;20055;-76
2023/03/23 10:18:02;;;;;;;0.40;0.40;;;;;;;7.60;100.00;98365.06;5046362;28;20045;-76
2023/03/23 10:20:49;;;;;;;0.40;0.40;;;;;;;7.64;100.00;98355.47;5046218;28;20036;-76
2023/03/23 10:23:18;;;;;;;0.50;0.50;;;;;;;7.69;100.00;98363.94;5061591;28;20113;-76
2023/03/23 10:26:25;;;;;;;0.73;0.73;;;;;;;7.78;100.00;98352.50;5046341;28;20037;-76
2023/03/23 10:28:58;;;;;;;0.40;0.40;;;;;;;7.91;100.00;98347.78;5039330;28;20040;-78
2023/03/23 10:31:37;;;;;;;0.50;0.50;;;;;;;8.01;100.00;98345.75;5046293;28;20021;-78
2023/03/23 10:34:17;;;;;;;0.50;0.50;;;;;;;8.03;100.00;98344.84;5046006;28;20021;-79
2023/03/23 10:36:55;;;;;;;0.40;0.40;;;;;;;8.05;100.00;98349.97;5044662;28;20470;-77
2023/03/23 10:39:24;;;;;;;0.50;0.50;;;;;;;8.02;100.00;98339.72;5045813;28;20033;-79
2023/03/23 10:41:49;;;;;;;0.40;0.40;;;;;;;7.98;100.00;98338.97;5045914;28;20025;-78
2023/03/23 10:44:21;;;;;;;0.40;0.40;;;;;;;8.04;100.00;98348.25;5045264;28;20030;-77
2023/03/23 10:47:00;;;;;;;0.40;0.40;;;;;;;7.99;100.00;98342.38;5045786;28;20408;-79
2023/03/23 10:49:32;;;;;;;0.50;0.50;;;;;;;7.85;100.00;98327.31;5061106;28;20037;-78
2023/03/23 10:52:27;;;;;;;0.40;0.40;;;;;;;7.90;100.00;98341.78;5045694;28;20026;-78
2023/03/23 10:55:02;;;;;;;0.80;0.80;;;;;;;7.91;100.00;98327.09;5042205;28;20128;-76
2023/03/23 10:57:30;;;;;;;0.40;0.40;;;;;;;7.72;100.00;98301.00;5045705;28;20029;-77
2023/03/23 11:00:26;;;;;;;0.40;0.40;;;;;;;7.92;100.00;98329.66;5045415;28;20033;-78
2023/03/23 11:03:13;;;;;;;0.40;0.40;;;;;;;7.98;100.00;98332.94;5059801;28;20455;-77
2023/03/23 11:05:42;;;;;;;0.40;0.40;;;;;;;7.96;100.00;98322.66;5044423;28;20104;-79
2023/03/23 11:08:16;;;;;;;0.40;0.40;;;;;;;7.75;100.00;98295.72;5045497;28;20026;-78
2023/03/23 11:11:15;;;;;;;0.40;0.40;;;;;;;7.85;100.00;98312.66;5045652;28;20036;-76
2023/03/23 11:13:46;;;;;;;0.40;0.40;;;;;;;7.76;100.00;98307.78;5042104;28;20069;-75
2023/03/23 11:16:33;;;;;;;0.45;0.45;;;;;;;7.90;100.00;98322.84;5045088;28;20028;-74
2023/03/23 11:19:01;;;;;;;0.40;0.40;;;;;;;7.81;100.00;98337.72;5045375;28;20026;-75
2023/03/23 11:21:27;;;;;;;0.45;0.45;;;;;;;7.74;100.00;98330.22;5045312;28;20029;-77
2023/03/23 11:23:58;;;;;;;0.40;0.40;;;;;;;7.61;100.00;98320.25;5045225;28;20029;-75
2023/03/23 11:26:33;;;;;;;0.40;0.40;;;;;;;7.52;100.00;98328.28;5045127;28;20104;-75
2023/03/23 11:29:16;;;;;;;0.40;0.40;;;;;;;7.51;100.00;98329.16;5044944;28;20025;-74
2023/03/23 11:31:48;;;;;;;0.47;0.47;;;;;;;7.50;100.00;98328.34;5045081;28;20021;-74
2023/03/23 11:34:18;;;;;;;0.40;0.40;;;;;;;7.43;100.00;98325.06;5045086;28;20048;-74
2023/03/23 11:36:58;;;;;;;0.50;0.50;;;;;;;7.16;100.00;98291.44;5060405;28;20025;-76
2023/03/23 11:39:26;;;;;;;0.45;0.45;;;;;;;7.28;100.00;98330.69;5045072;28;20041;-73
2023/03/23 11:41:53;;;;;;;0.35;0.35;;;;;;;7.17;100.00;98331.81;5060440;28;20033;-71
2023/03/23 11:44:20;;;;;;;0.50;0.50;;;;;;;7.03;100.00;98314.16;5044687;28;20048;-72
2023/03/23 11:47:01;;;;;;;0.47;0.47;;;;;;;7.01;100.00;98333.16;5045028;28;20032;-72